Time;durP1;ratioP1;P1;durP2;ratioP2;P2;SDS_P1;SDS_P2;PMS_P1;PMS_P2;Temp;Humidity;BMP_temperature;BMP_pressure;BME280_temperature;BME280_humidity;BME280_pressure;Samples;Min_cycle;Max_cycle;Signal;HPM_P1;HPM_P2
2021/01/28 00:00:18;;;;;;;181.00;85.60;;;1.30;97.30;;;;;;5096059;28;20097;-71
2021/01/28 00:02:44;;;;;;;105.68;52.40;;;1.30;97.00;;;;;;5095585;28;20024;-73
2021/01/28 00:05:09;;;;;;;89.10;47.30;;;1.30;97.10;;;;;;5096876;28;20152;-71
2021/01/28 00:07:35;;;;;;;99.93;50.63;;;1.30;96.90;;;;;;5095347;28;20032;-73
2021/01/28 00:10:02;;;;;;;86.03;43.33;;;1.30;97.00;;;;;;5096516;28;20462;-73
2021/01/28 00:12:28;;;;;;;87.07;45.70;;;1.40;97.00;;;;;;5095982;28;20047;-72
2021/01/28 00:14:53;;;;;;;206.25;85.65;;;1.40;97.30;;;;;;5095045;28;20032;-72
2021/01/28 00:17:19;;;;;;;126.38;53.42;;;1.40;96.90;;;;;;5095389;28;20028;-72
2021/01/28 00:19:45;;;;;;;65.97;34.60;;;1.40;96.60;;;;;;5096296;28;20101;-72
2021/01/28 00:22:11;;;;;;;67.13;35.22;;;1.40;96.70;;;;;;5096156;28;20028;-70
2021/01/28 00:24:36;;;;;;;85.32;42.35;;;1.40;96.90;;;;;;5096474;28;20032;-70
2021/01/28 00:27:03;;;;;;;72.57;37.72;;;1.40;96.60;;;;;;5094833;28;20055;-70
2021/01/28 00:29:29;;;;;;;62.47;32.45;;;1.40;96.80;;;;;;5095095;28;20393;-71
2021/01/28 00:31:55;;;;;;;52.28;29.98;;;1.50;96.40;;;;;;5095029;28;20024;-71
2021/01/28 00:34:21;;;;;;;64.95;32.15;;;1.50;96.70;;;;;;5094627;28;20024;-71
2021/01/28 00:36:47;;;;;;;87.97;44.35;;;1.50;96.40;;;;;;5094979;28;20028;-71
2021/01/28 00:39:12;;;;;;;49.10;28.20;;;1.50;96.50;;;;;;5094938;28;20069;-72
2021/01/28 00:41:38;;;;;;;61.38;32.53;;;1.50;96.70;;;;;;5094643;28;20466;-70
2021/01/28 00:44:04;;;;;;;88.13;42.58;;;1.60;96.70;;;;;;5094900;28;20069;-72
2021/01/28 00:46:30;;;;;;;108.20;49.92;;;1.50;96.40;;;;;;5094803;28;20032;-71
2021/01/28 00:48:56;;;;;;;65.53;34.40;;;1.50;96.30;;;;;;5094385;28;20024;-71
2021/01/28 00:51:21;;;;;;;90.68;43.17;;;1.60;96.50;;;;;;5095707;28;20028;-73
2021/01/28 00:53:47;;;;;;;116.55;54.72;;;1.50;96.30;;;;;;5094673;28;20461;-71
2021/01/28 00:56:13;;;;;;;120.45;55.50;;;1.50;96.30;;;;;;5093873;28;20469;-72
2021/01/28 00:58:39;;;;;;;86.03;45.25;;;1.50;96.30;;;;;;5095554;28;20039;-71
2021/01/28 01:01:05;;;;;;;73.35;37.90;;;1.50;96.30;;;;;;5094540;28;20044;-70
2021/01/28 01:03:30;;;;;;;94.30;48.50;;;1.60;96.20;;;;;;5094148;28;20115;-71
2021/01/28 01:05:56;;;;;;;65.22;35.53;;;1.60;96.40;;;;;;5095054;28;20526;-72
2021/01/28 01:08:31;;;;;;;68.80;37.75;;;1.60;96.40;;;;;;5095654;28;20511;-73
2021/01/28 01:11:03;;;;;;;74.68;40.03;;;1.60;96.40;;;;;;5094061;28;20024;-71
2021/01/28 01:13:32;;;;;;;54.42;31.83;;;1.60;96.30;;;;;;5094878;28;20435;-73
2021/01/28 01:15:58;;;;;;;75.05;38.72;;;1.60;96.20;;;;;;5095095;28;20030;-72
2021/01/28 01:18:27;;;;;;;59.70;33.03;;;1.60;96.20;;;;;;5094168;28;20028;-72
2021/01/28 01:20:53;;;;;;;90.90;44.55;;;1.60;96.10;;;;;;5094707;28;20028;-71
2021/01/28 01:23:20;;;;;;;79.78;39.33;;;1.60;96.40;;;;;;5093774;28;20070;-73
2021/01/28 01:25:46;;;;;;;72.53;38.67;;;1.60;96.00;;;;;;5093958;28;20028;-70
2021/01/28 01:28:12;;;;;;;79.13;45.83;;;1.60;96.20;;;;;;5095256;28;20052;-71
2021/01/28 01:30:38;;;;;;;94.68;52.30;;;1.60;96.10;;;;;;5093955;28;20119;-71
2021/01/28 01:33:05;;;;;;;112.60;57.60;;;1.60;96.00;;;;;;5093866;28;20077;-73
2021/01/28 01:35:31;;;;;;;84.90;46.25;;;1.60;96.30;;;;;;5093747;28;20032;-71
2021/01/28 01:37:57;;;;;;;90.13;48.05;;;1.60;96.30;;;;;;5095065;28;20036;-73
2021/01/28 01:40:28;;;;;;;152.77;71.88;;;1.60;96.20;;;;;;5093741;28;20380;-70
2021/01/28 01:42:55;;;;;;;103.45;49.58;;;1.60;96.20;;;;;;5094639;28;20024;-71
2021/01/28 01:45:44;;;;;;;110.57;58.17;;;1.60;96.30;;;;;;5093262;28;20115;-73
2021/01/28 01:48:14;;;;;;;96.60;55.20;;;1.60;95.90;;;;;;5093563;28;20078;-72
2021/01/28 01:51:12;;;;;;;83.18;44.58;;;1.60;96.10;;;;;;5093202;28;20031;-72
2021/01/28 01:53:56;;;;;;;86.55;48.97;;;1.60;96.30;;;;;;5093762;28;20115;-71
2021/01/28 01:56:35;;;;;;;60.63;34.63;;;1.60;96.20;;;;;;5093372;28;20034;-71
2021/01/28 01:59:08;;;;;;;51.65;30.85;;;1.60;95.80;;;;;;5094132;28;20048;-71
2021/01/28 02:01:39;;;;;;;50.95;29.85;;;1.60;96.00;;;;;;5093956;28;20028;-73
2021/01/28 02:04:06;;;;;;;47.05;27.25;;;1.60;96.20;;;;;;5094665;28;20066;-72
2021/01/28 02:06:39;;;;;;;50.78;31.05;;;1.60;95.90;;;;;;5093741;28;20047;-73
2021/01/28 02:09:07;;;;;;;40.15;24.90;;;1.60;96.20;;;;;;5094229;28;20402;-71
2021/01/28 02:11:32;;;;;;;71.05;38.25;;;1.60;96.00;;;;;;5094478;28;20024;-73
2021/01/28 02:14:01;;;;;;;35.10;20.17;;;1.60;95.60;;;;;;5092766;28;20081;-72
2021/01/28 02:16:32;;;;;;;43.10;23.98;;;1.60;95.60;;;;;;5094061;28;20028;-71
2021/01/28 02:19:00;;;;;;;76.22;40.22;;;1.60;95.60;;;;;;5093356;28;20039;-71
2021/01/28 02:21:34;;;;;;;47.28;26.70;;;1.50;95.30;;;;;;5092993;28;20028;-72
2021/01/28 02:24:32;;;;;;;58.63;31.85;;;1.60;96.00;;;;;;5093186;28;20437;-72
2021/01/28 02:26:59;;;;;;;51.58;29.17;;;1.60;95.70;;;;;;5093737;28;20024;-74
2021/01/28 02:29:26;;;;;;;69.22;37.85;;;1.60;95.60;;;;;;5093001;28;20023;-72
2021/01/28 02:31:54;;;;;;;66.28;36.70;;;1.60;95.50;;;;;;5092879;28;20510;-73
2021/01/28 02:34:21;;;;;;;55.50;30.27;;;1.50;95.50;;;;;;5092401;28;20060;-73
2021/01/28 02:36:50;;;;;;;59.78;38.08;;;1.60;95.70;;;;;;5093114;28;20028;-71
2021/01/28 02:39:20;;;;;;;60.88;32.97;;;1.50;95.30;;;;;;5094327;28;20429;-71
2021/01/28 02:42:11;;;;;;;57.55;31.38;;;1.50;95.80;;;;;;5092574;28;20020;-71
2021/01/28 02:44:36;;;;;;;54.78;33.55;;;1.50;95.50;;;;;;5092589;28;20028;-73
2021/01/28 02:47:02;;;;;;;45.88;27.15;;;1.50;95.70;;;;;;5093410;28;20466;-72
2021/01/28 02:49:28;;;;;;;76.18;40.72;;;1.50;95.90;;;;;;5093552;28;20044;-72
2021/01/28 02:51:53;;;;;;;60.70;34.17;;;1.50;95.60;;;;;;5092597;28;20024;-71
2021/01/28 02:54:19;;;;;;;29.92;19.88;;;1.50;95.60;;;;;;5093692;28;20024;-71
2021/01/28 02:56:45;;;;;;;33.30;19.67;;;1.50;95.30;;;;;;5092531;28;20051;-73
2021/01/28 02:59:11;;;;;;;27.50;18.30;;;1.50;95.40;;;;;;5093594;28;20028;-71
2021/01/28 03:01:38;;;;;;;30.77;19.00;;;1.40;95.20;;;;;;5093902;28;20016;-71
2021/01/28 03:04:05;;;;;;;33.25;19.25;;;1.50;95.80;;;;;;5092514;28;20377;-72
2021/01/28 03:06:32;;;;;;;35.40;20.65;;;1.50;95.50;;;;;;5092581;28;20047;-73
2021/01/28 03:08:58;;;;;;;37.33;20.42;;;1.50;95.70;;;;;;5092316;28;20027;-74
2021/01/28 03:11:24;;;;;;;30.92;19.15;;;1.50;95.30;;;;;;5092842;28;20115;-72
2021/01/28 03:13:50;;;;;;;39.80;21.77;;;1.50;95.70;;;;;;5092413;28;20028;-73
2021/01/28 03:16:16;;;;;;;33.33;18.60;;;1.50;95.30;;;;;;5092037;28;20097;-73
2021/01/28 03:18:41;;;;;;;33.90;18.92;;;1.50;95.50;;;;;;5095349;28;20029;-72
2021/01/28 03:21:07;;;;;;;46.17;22.98;;;1.40;95.30;;;;;;5097717;28;20462;-73
2021/01/28 03:23:33;;;;;;;32.17;18.30;;;1.50;95.80;;;;;;5096136;28;20020;-71
2021/01/28 03:25:58;;;;;;;31.60;18.50;;;1.50;95.80;;;;;;5097176;28;20036;-72
2021/01/28 03:28:24;;;;;;;47.78;26.23;;;1.50;95.70;;;;;;5096268;28;20603;-73
2021/01/28 03:30:50;;;;;;;57.25;32.25;;;1.50;95.60;;;;;;5095973;28;20055;-72
2021/01/28 03:33:20;;;;;;;43.05;25.35;;;1.50;95.50;;;;;;5096226;28;20036;-72
2021/01/28 03:35:46;;;;;;;25.52;16.17;;;1.50;95.60;;;;;;5095768;28;20024;-73
2021/01/28 03:38:13;;;;;;;24.33;15.68;;;1.50;95.60;;;;;;5096675;28;20454;-73
2021/01/28 03:40:40;;;;;;;35.65;22.92;;;1.50;95.80;;;;;;5095970;28;20075;-71
2021/01/28 03:43:06;;;;;;;30.85;19.77;;;1.50;95.70;;;;;;5097028;28;20020;-72
2021/01/28 03:45:33;;;;;;;29.98;18.10;;;1.50;95.80;;;;;;5096556;28;20096;-73
2021/01/28 03:47:59;;;;;;;48.55;24.50;;;1.50;95.70;;;;;;5097211;28;20028;-73
2021/01/28 03:50:28;;;;;;;42.42;22.30;;;1.50;95.90;;;;;;5096872;28;20031;-74
2021/01/28 03:52:54;;;;;;;35.95;20.52;;;1.50;96.00;;;;;;5095758;28;20027;-72
2021/01/28 03:55:21;;;;;;;35.03;20.58;;;1.50;95.60;;;;;;5095679;28;20028;-73
2021/01/28 03:57:48;;;;;;;34.67;20.80;;;1.50;95.40;;;;;;5095533;28;20034;-72
2021/01/28 04:00:17;;;;;;;31.00;18.70;;;1.50;95.50;;;;;;5096454;28;20125;-72
2021/01/28 04:02:43;;;;;;;65.93;33.90;;;1.50;95.60;;;;;;5095614;28;20035;-71
2021/01/28 04:05:09;;;;;;;84.80;38.63;;;1.50;95.30;;;;;;5095676;28;20032;-71
2021/01/28 04:07:35;;;;;;;49.72;25.80;;;1.50;95.40;;;;;;5095506;28;20028;-72
2021/01/28 04:10:01;;;;;;;40.20;24.08;;;1.40;95.60;;;;;;5097268;28;20097;-72
2021/01/28 04:12:27;;;;;;;70.88;38.28;;;1.50;95.50;;;;;;5095117;28;20024;-71
2021/01/28 04:14:52;;;;;;;44.88;25.88;;;1.50;95.40;;;;;;5095335;28;20031;-72
2021/01/28 04:17:18;;;;;;;47.22;27.92;;;1.40;95.20;;;;;;5096538;28;20032;-72
2021/01/28 04:19:44;;;;;;;137.57;70.65;;;1.40;95.40;;;;;;5094996;28;20051;-71
2021/01/28 04:22:09;;;;;;;47.05;27.52;;;1.40;95.40;;;;;;5096328;28;20089;-71
2021/01/28 04:24:36;;;;;;;44.78;25.67;;;1.40;95.20;;;;;;5095445;28;20024;-73
2021/01/28 04:27:03;;;;;;;97.38;52.60;;;1.40;95.00;;;;;;5095154;28;20020;-72
2021/01/28 04:29:29;;;;;;;78.07;43.15;;;1.40;95.30;;;;;;5094724;28;20031;-71
2021/01/28 04:31:55;;;;;;;99.70;51.92;;;1.40;95.30;;;;;;5094873;28;20111;-71
2021/01/28 04:34:20;;;;;;;56.38;29.23;;;1.40;95.80;;;;;;5094653;28;20166;-72
2021/01/28 04:36:46;;;;;;;33.67;21.45;;;1.30;95.10;;;;;;5094974;28;20070;-72
2021/01/28 04:39:12;;;;;;;32.13;20.13;;;1.20;95.10;;;;;;5095065;28;20020;-71
2021/01/28 04:41:38;;;;;;;39.90;24.17;;;1.10;95.20;;;;;;5094901;28;20109;-71
2021/01/28 04:44:05;;;;;;;60.78;31.67;;;1.10;95.50;;;;;;5094824;28;20077;-72
2021/01/28 04:46:50;;;;;;;54.05;29.23;;;1.10;95.50;;;;;;5094632;28;20427;-73
2021/01/28 04:49:18;;;;;;;36.97;21.20;;;1.10;95.40;;;;;;5095433;28;20020;-72
2021/01/28 04:51:46;;;;;;;37.92;23.70;;;1.00;95.50;;;;;;5094731;28;20032;-73
2021/01/28 04:54:26;;;;;;;52.70;32.25;;;1.00;95.70;;;;;;5094338;28;20081;-72
2021/01/28 04:56:56;;;;;;;57.53;33.25;;;1.00;95.90;;;;;;5094810;28;20039;-71
2021/01/28 04:59:30;;;;;;;52.78;32.38;;;1.10;95.80;;;;;;5095704;28;20040;-72
2021/01/28 05:01:57;;;;;;;54.40;32.97;;;1.10;95.70;;;;;;5095576;28;20020;-71
2021/01/28 05:04:36;;;;;;;159.57;61.10;;;1.10;95.70;;;;;;5096005;28;20176;-73
2021/01/28 05:07:02;;;;;;;170.55;63.35;;;1.10;95.90;;;;;;5094571;28;20450;-71
2021/01/28 05:09:28;;;;;;;121.78;50.38;;;1.10;95.90;;;;;;5094313;28;20119;-72
2021/01/28 05:11:57;;;;;;;78.53;37.42;;;1.10;95.90;;;;;;5094294;28;20028;-73
2021/01/28 05:14:28;;;;;;;129.20;47.95;;;1.20;96.00;;;;;;5094864;28;20056;-74
2021/01/28 05:16:56;;;;;;;159.70;53.10;;;1.10;95.80;;;;;;5094201;28;20024;-73
2021/01/28 05:19:40;;;;;;;85.88;41.17;;;1.10;96.00;;;;;;5094192;28;20085;-72
2021/01/28 05:22:36;;;;;;;74.60;38.60;;;1.10;95.90;;;;;;5094005;28;20363;-72
2021/01/28 05:25:14;;;;;;;57.58;32.28;;;1.20;95.90;;;;;;5094578;28;20124;-71
2021/01/28 05:27:40;;;;;;;58.10;32.58;;;1.20;96.10;;;;;;5095000;28;20024;-71
2021/01/28 05:30:16;;;;;;;53.53;29.77;;;1.20;96.00;;;;;;5094508;28;20077;-71
2021/01/28 05:32:49;;;;;;;61.13;37.47;;;1.20;95.70;;;;;;5093929;28;20024;-71
2021/01/28 05:35:44;;;;;;;105.82;48.55;;;1.10;95.80;;;;;;5093481;28;20028;-71
2021/01/28 05:38:41;;;;;;;46.70;27.90;;;1.10;96.10;;;;;;5072304;28;20543;-71
2021/01/28 05:41:11;;;;;;;134.63;51.53;;;1.00;96.10;;;;;;5093286;28;20123;-72
2021/01/28 05:43:46;;;;;;;69.75;35.50;;;0.90;96.10;;;;;;5094678;28;20031;-72
2021/01/28 05:46:23;;;;;;;109.53;51.95;;;0.90;96.40;;;;;;5093687;28;20039;-72
2021/01/28 05:49:09;;;;;;;80.45;45.80;;;0.90;96.30;;;;;;5093307;28;20062;-71
2021/01/28 05:51:38;;;;;;;111.22;69.63;;;0.80;96.40;;;;;;5094892;28;20048;-71
2021/01/28 05:54:07;;;;;;;85.80;52.08;;;0.80;96.40;;;;;;5093212;28;20144;-71
2021/01/28 05:56:44;;;;;;;72.82;45.88;;;0.70;96.40;;;;;;5093055;28;20035;-70
2021/01/28 05:59:18;;;;;;;68.03;41.75;;;0.80;96.60;;;;;;5093198;28;20036;-71
2021/01/28 06:02:02;;;;;;;105.05;52.75;;;0.80;97.20;;;;;;5093400;28;20024;-71
2021/01/28 06:04:52;;;;;;;120.75;61.78;;;0.70;96.50;;;;;;5093042;28;20028;-71
2021/01/28 06:07:52;;;;;;;138.52;67.43;;;0.70;96.40;;;;;;5094599;28;20032;-72
2021/01/28 06:10:48;;;;;;;134.93;63.53;;;0.70;96.50;;;;;;5094192;28;20027;-73
2021/01/28 06:13:40;;;;;;;117.90;59.00;;;0.60;96.50;;;;;;5093860;28;20024;-72
2021/01/28 06:16:37;;;;;;;74.70;41.55;;;0.70;96.60;;;;;;5093036;28;20038;-72
2021/01/28 06:19:27;;;;;;;59.55;36.30;;;0.70;96.50;;;;;;5093123;28;20032;-72
2021/01/28 06:21:56;;;;;;;50.78;33.35;;;0.70;96.50;;;;;;5093138;28;20046;-72
2021/01/28 06:25:01;;;;;;;51.78;33.20;;;0.70;96.50;;;;;;5093243;28;20024;-73
2021/01/28 06:27:41;;;;;;;41.33;25.73;;;0.70;96.40;;;;;;5094043;28;20058;-72
2021/01/28 06:30:16;;;;;;;30.80;20.00;;;0.70;96.70;;;;;;5094228;28;20035;-72
2021/01/28 06:33:07;;;;;;;33.95;20.52;;;0.60;96.50;;;;;;5092691;28;20031;-72
2021/01/28 06:35:58;;;;;;;59.55;35.90;;;0.60;96.40;;;;;;5092729;28;20461;-72
2021/01/28 06:38:37;;;;;;;96.22;47.97;;;0.60;96.60;;;;;;5087133;28;20068;-73
2021/01/28 06:41:08;;;;;;;93.00;47.83;;;0.60;96.60;;;;;;5094090;28;20099;-72
2021/01/28 06:43:58;;;;;;;66.32;39.55;;;0.50;96.70;;;;;;5094065;28;20034;-71
2021/01/28 06:46:47;;;;;;;65.65;39.95;;;0.60;96.70;;;;;;5093767;28;20110;-71
2021/01/28 06:49:22;;;;;;;59.45;37.60;;;0.70;96.90;;;;;;5092497;28;20028;-72
2021/01/28 06:51:51;;;;;;;139.63;84.93;;;0.70;96.90;;;;;;5093149;28;20334;-71
2021/01/28 06:54:32;;;;;;;103.32;56.42;;;0.60;96.20;;;;;;5092384;28;20016;-71
2021/01/28 06:57:21;;;;;;;82.53;45.33;;;0.70;96.30;;;;;;5092932;28;20392;-72
2021/01/28 06:59:59;;;;;;;84.25;47.25;;;0.70;96.40;;;;;;5092061;28;20109;-71
2021/01/28 07:02:31;;;;;;;98.55;53.92;;;0.70;96.50;;;;;;5092563;28;20028;-72
2021/01/28 07:05:19;;;;;;;161.40;83.55;;;0.60;96.60;;;;;;5093009;28;20028;-71
2021/01/28 07:07:58;;;;;;;173.98;87.18;;;0.60;96.70;;;;;;5093435;28;20024;-72
2021/01/28 07:10:37;;;;;;;158.25;79.38;;;0.60;96.60;;;;;;5092796;28;20024;-73
2021/01/28 07:13:05;;;;;;;117.38;62.40;;;0.70;96.60;;;;;;5093416;28;20024;-72
2021/01/28 07:15:31;;;;;;;97.85;54.95;;;0.70;96.30;;;;;;5092257;28;20032;-73
2021/01/28 07:18:11;;;;;;;95.93;60.95;;;0.70;96.40;;;;;;5092366;28;20028;-73
2021/01/28 07:20:57;;;;;;;81.00;52.88;;;0.70;96.30;;;;;;5092171;28;20024;-72
2021/01/28 07:23:32;;;;;;;77.05;47.17;;;0.80;96.20;;;;;;5092270;28;20028;-72
2021/01/28 07:26:14;;;;;;;90.05;56.53;;;0.80;96.10;;;;;;5092178;28;20032;-72
2021/01/28 07:28:41;;;;;;;85.43;52.03;;;0.90;96.30;;;;;;5093238;28;20161;-72
2021/01/28 07:31:07;;;;;;;108.90;54.78;;;1.00;95.80;;;;;;5093401;28;20035;-72
2021/01/28 07:33:41;;;;;;;108.40;66.00;;;1.10;95.80;;;;;;5092094;28;20024;-72
2021/01/28 07:36:12;;;;;;;104.47;61.85;;;1.10;95.30;;;;;;5092097;28;20039;-72
2021/01/28 07:39:07;;;;;;;99.30;59.40;;;1.20;95.30;;;;;;5092073;28;20051;-72
2021/01/28 07:41:53;;;;;;;118.80;75.05;;;1.20;95.50;;;;;;5073805;28;20036;-72
2021/01/28 07:44:34;;;;;;;114.63;70.75;;;1.30;95.00;;;;;;5093316;28;20028;-71
2021/01/28 07:47:01;;;;;;;97.07;59.67;;;1.40;94.50;;;;;;5092080;28;20028;-72
2021/01/28 07:49:32;;;;;;;262.00;146.57;;;1.50;93.90;;;;;;5091850;28;20027;-71
2021/01/28 07:51:58;;;;;;;330.17;162.63;;;1.70;94.40;;;;;;5092108;28;20380;-71
2021/01/28 07:54:29;;;;;;;112.32;55.85;;;2.00;92.90;;;;;;5091885;28;20138;-71
2021/01/28 07:57:07;;;;;;;149.02;67.38;;;2.00;92.50;;;;;;5091584;28;20113;-71
2021/01/28 07:59:49;;;;;;;143.35;71.97;;;2.20;91.50;;;;;;5091758;28;20048;-72
2021/01/28 08:02:22;;;;;;;150.60;73.90;;;2.40;91.50;;;;;;5092213;28;20035;-73
2021/01/28 08:05:03;;;;;;;141.70;72.17;;;2.70;94.80;;;;;;5093062;28;20060;-72
2021/01/28 08:07:38;;;;;;;117.82;57.72;;;2.90;91.50;;;;;;5096211;28;20681;-71
2021/01/28 08:10:29;;;;;;;107.18;53.55;;;3.20;93.40;;;;;;5096838;28;20068;-72
2021/01/28 08:13:02;;;;;;;62.75;35.97;;;4.10;90.30;;;;;;5096773;28;20020;-72
2021/01/28 08:15:45;;;;;;;50.38;28.08;;;4.20;86.40;;;;;;5095349;28;20028;-71
2021/01/28 08:18:31;;;;;;;31.25;18.05;;;4.00;85.80;;;;;;5095392;28;20067;-73
2021/01/28 08:21:20;;;;;;;81.00;40.95;;;3.60;82.40;;;;;;5096095;28;20099;-71
2021/01/28 08:23:47;;;;;;;126.65;44.60;;;3.50;86.60;;;;;;5095222;28;20465;-70
2021/01/28 08:26:43;;;;;;;281.48;76.63;;;3.40;88.30;;;;;;5094839;28;20028;-72
2021/01/28 08:29:16;;;;;;;76.15;41.55;;;3.30;84.80;;;;;;5074281;28;20583;-70
2021/01/28 08:31:48;;;;;;;98.90;42.55;;;3.10;84.80;;;;;;5095068;28;20020;-72
2021/01/28 08:34:20;;;;;;;31.75;19.55;;;3.40;90.50;;;;;;5094692;28;20024;-71
2021/01/28 08:37:02;;;;;;;98.72;41.53;;;3.40;83.50;;;;;;5095190;28;20028;-70
2021/01/28 08:39:31;;;;;;;83.10;39.08;;;3.70;90.40;;;;;;5094964;28;20032;-69
2021/01/28 08:42:03;;;;;;;46.67;28.77;;;4.70;93.10;;;;;;5095846;28;20028;-69
2021/01/28 08:44:31;;;;;;;46.22;29.83;;;5.10;80.60;;;;;;5093845;28;20554;-72
2021/01/28 08:47:21;;;;;;;69.20;40.38;;;4.60;73.70;;;;;;5093180;28;20024;-69
2021/01/28 08:50:07;;;;;;;74.97;41.83;;;5.00;88.70;;;;;;5092798;28;20209;-71
2021/01/28 08:52:35;;;;;;;49.63;30.60;;;5.50;82.70;;;;;;5094320;28;20024;-69
2021/01/28 08:55:17;;;;;;;33.60;21.40;;;5.70;86.60;;;;;;5094258;28;20032;-71
2021/01/28 08:57:43;;;;;;;30.80;20.48;;;5.50;73.80;;;;;;5095903;28;20027;-71
2021/01/28 09:00:10;;;;;;;43.63;26.15;;;5.30;72.70;;;;;;5094659;28;20048;-70
2021/01/28 09:02:44;;;;;;;64.72;37.08;;;5.40;76.20;;;;;;5094147;28;20023;-70
2021/01/28 09:05:33;;;;;;;56.40;34.75;;;5.30;76.70;;;;;;5094140;28;20024;-71
2021/01/28 09:08:06;;;;;;;51.05;28.00;;;5.20;70.80;;;;;;5090687;28;20024;-69
2021/01/28 09:10:40;;;;;;;64.20;39.40;;;5.50;72.70;;;;;;5092586;28;20467;-71
2021/01/28 09:13:20;;;;;;;42.63;26.58;;;5.80;71.40;;;;;;5094159;28;20012;-71
2021/01/28 09:15:48;;;;;;;17.60;10.70;;;5.70;69.90;;;;;;5093874;28;20024;-70
2021/01/28 09:18:28;;;;;;;33.97;20.10;;;6.00;71.30;;;;;;5092754;28;20063;-71
2021/01/28 09:21:05;;;;;;;23.58;12.85;;;6.00;70.20;;;;;;5094020;28;20027;-70
2021/01/28 09:23:30;;;;;;;29.20;16.00;;;5.80;66.10;;;;;;5094182;28;20448;-71
2021/01/28 09:26:24;;;;;;;23.83;13.80;;;5.90;73.50;;;;;;5094050;28;20067;-69
2021/01/28 09:28:49;;;;;;;33.67;16.48;;;6.30;71.50;;;;;;5093942;28;20469;-68
2021/01/28 09:31:30;;;;;;;31.73;18.35;;;6.60;73.00;;;;;;5093573;28;20055;-68
2021/01/28 09:33:56;;;;;;;33.33;17.98;;;7.30;65.20;;;;;;5093990;28;20462;-68
2021/01/28 09:36:29;;;;;;;29.50;18.90;;;7.00;61.60;;;;;;5094501;28;20469;-70
2021/01/28 09:39:06;;;;;;;14.90;9.65;;;6.70;63.20;;;;;;5095423;28;20431;-68
2021/01/28 09:41:45;;;;;;;25.77;15.98;;;6.90;62.70;;;;;;5095093;28;20035;-68
2021/01/28 09:44:30;;;;;;;22.02;12.68;;;7.30;67.10;;;;;;5093431;28;20082;-69
2021/01/28 09:47:25;;;;;;;22.33;14.52;;;7.60;63.40;;;;;;5093992;28;20077;-71
2021/01/28 09:50:06;;;;;;;25.25;15.60;;;7.90;61.00;;;;;;5093731;28;20020;-71
2021/01/28 09:52:36;;;;;;;19.42;12.45;;;8.10;63.30;;;;;;5092928;28;20036;-70
2021/01/28 09:55:12;;;;;;;15.00;8.77;;;7.80;54.50;;;;;;5090367;28;20032;-71
2021/01/28 09:57:38;;;;;;;16.13;9.60;;;7.50;58.70;;;;;;5093134;28;20032;-72
2021/01/28 10:00:07;;;;;;;46.85;25.90;;;7.20;58.60;;;;;;5093163;28;20055;-72
2021/01/28 10:02:38;;;;;;;41.45;22.27;;;7.30;62.00;;;;;;5094637;28;20020;-70
2021/01/28 10:05:05;;;;;;;37.15;22.83;;;7.40;59.80;;;;;;5093023;28;20028;-71
2021/01/28 10:07:31;;;;;;;37.92;21.80;;;7.50;60.10;;;;;;5094762;28;20048;-71
2021/01/28 10:09:57;;;;;;;38.47;20.95;;;7.50;59.30;;;;;;5093191;28;20492;-71
2021/01/28 10:12:26;;;;;;;34.70;17.85;;;7.10;59.30;;;;;;5092919;28;20063;-71
2021/01/28 10:14:52;;;;;;;16.80;9.65;;;7.00;57.70;;;;;;5093197;28;20040;-71
2021/01/28 10:17:18;;;;;;;22.85;11.85;;;7.00;58.00;;;;;;5094915;28;20034;-71
2021/01/28 10:19:44;;;;;;;17.35;11.38;;;7.00;56.90;;;;;;5092830;28;20020;-71
2021/01/28 10:22:16;;;;;;;20.70;10.43;;;6.80;56.90;;;;;;5092545;28;20393;-71
2021/01/28 10:24:42;;;;;;;11.93;6.78;;;6.90;56.70;;;;;;5089502;28;20035;-72
2021/01/28 10:27:09;;;;;;;8.68;4.65;;;6.80;56.20;;;;;;5092004;28;20391;-72
2021/01/28 10:29:37;;;;;;;20.50;11.35;;;6.80;57.80;;;;;;5092917;28;20443;-73
2021/01/28 10:32:05;;;;;;;21.02;11.30;;;6.80;57.40;;;;;;5093522;28;20028;-73
2021/01/28 10:34:31;;;;;;;15.18;9.30;;;6.60;57.90;;;;;;5093921;28;20065;-71
2021/01/28 10:36:57;;;;;;;17.50;9.35;;;6.70;61.80;;;;;;5093217;28;20120;-73
2021/01/28 10:39:23;;;;;;;32.03;17.77;;;6.80;60.30;;;;;;5092222;28;20385;-71
2021/01/28 10:41:49;;;;;;;27.95;12.70;;;6.60;56.40;;;;;;5092794;28;20024;-71
2021/01/28 10:44:16;;;;;;;42.80;20.35;;;6.60;57.60;;;;;;5092922;28;20020;-73
2021/01/28 10:46:42;;;;;;;52.67;24.15;;;6.50;59.70;;;;;;5093458;28;20031;-72
2021/01/28 10:49:10;;;;;;;24.52;12.57;;;6.50;56.40;;;;;;5093741;28;20370;-73
2021/01/28 10:51:36;;;;;;;36.13;19.95;;;6.50;58.20;;;;;;5088722;28;20048;-72
2021/01/28 10:54:02;;;;;;;36.65;20.10;;;6.60;61.30;;;;;;5091021;28;20031;-71
2021/01/28 10:56:29;;;;;;;14.77;8.82;;;6.50;56.40;;;;;;5091891;28;20027;-76
2021/01/28 10:58:55;;;;;;;22.77;11.55;;;6.50;56.30;;;;;;5093365;28;20039;-71
2021/01/28 11:01:22;;;;;;;28.15;15.98;;;6.50;59.60;;;;;;5091792;28;20040;-68
2021/01/28 11:03:47;;;;;;;27.95;15.82;;;6.70;67.20;;;;;;5092437;28;20384;-70
2021/01/28 11:06:13;;;;;;;18.50;9.68;;;6.50;57.50;;;;;;5092446;28;20128;-71
2021/01/28 11:08:40;;;;;;;23.27;12.38;;;6.50;55.20;;;;;;5092160;28;20059;-71
2021/01/28 11:11:06;;;;;;;30.83;14.88;;;6.60;56.90;;;;;;5092369;28;20028;-71
2021/01/28 11:13:32;;;;;;;25.33;10.73;;;6.60;60.30;;;;;;5092690;28;20549;-71
2021/01/28 11:15:58;;;;;;;32.60;14.75;;;6.50;54.00;;;;;;5091946;28;20032;-71
2021/01/28 11:18:24;;;;;;;22.20;12.48;;;6.50;55.00;;;;;;5093384;28;20466;-73
2021/01/28 11:20:50;;;;;;;13.98;7.40;;;6.60;57.00;;;;;;5092910;28;20031;-72
2021/01/28 11:23:16;;;;;;;14.40;7.68;;;6.60;55.90;;;;;;5091350;28;20068;-74
2021/01/28 11:25:41;;;;;;;22.73;12.00;;;6.70;55.30;;;;;;5091515;28;20024;-72
2021/01/28 11:28:07;;;;;;;31.30;15.45;;;6.90;58.80;;;;;;5093422;28;20633;-70
2021/01/28 11:30:34;;;;;;;61.30;26.00;;;7.00;58.80;;;;;;5093528;28;20039;-70
2021/01/28 11:33:02;;;;;;;47.50;22.05;;;7.00;56.50;;;;;;5092084;28;20165;-70
2021/01/28 11:35:31;;;;;;;14.65;9.77;;;7.10;61.00;;;;;;5091832;28;20028;-71
2021/01/28 11:38:01;;;;;;;18.85;12.43;;;7.00;55.00;;;;;;5092186;28;20033;-72
2021/01/28 11:40:28;;;;;;;42.85;22.77;;;7.20;56.40;;;;;;5093869;28;20385;-71
2021/01/28 11:42:54;;;;;;;29.45;17.58;;;7.20;54.30;;;;;;5096097;28;20028;-71
2021/01/28 11:45:29;;;;;;;31.98;18.48;;;7.30;58.30;;;;;;5096117;28;20538;-71
2021/01/28 11:47:56;;;;;;;13.32;8.00;;;7.40;54.40;;;;;;5096039;28;20081;-71
2021/01/28 11:50:22;;;;;;;12.05;6.85;;;7.60;51.50;;;;;;5095650;28;20028;-72
2021/01/28 11:52:48;;;;;;;8.95;4.63;;;7.70;51.90;;;;;;5095908;28;20111;-70
2021/01/28 11:55:18;;;;;;;23.48;12.48;;;7.60;50.40;;;;;;5097088;28;20036;-73
2021/01/28 11:57:44;;;;;;;56.83;27.80;;;7.70;52.40;;;;;;5095504;28;20457;-69
2021/01/28 12:00:12;;;;;;;18.90;9.60;;;8.20;57.50;;;;;;5095390;28;20050;-70
2021/01/28 12:02:39;;;;;;;28.85;16.23;;;7.90;51.00;;;;;;5095783;28;20024;-70
2021/01/28 12:05:06;;;;;;;32.45;18.17;;;7.90;56.90;;;;;;5094922;28;20028;-71
2021/01/28 12:07:32;;;;;;;48.60;24.67;;;7.60;51.00;;;;;;5096511;28;20529;-73
2021/01/28 12:09:58;;;;;;;36.67;18.83;;;7.40;53.00;;;;;;5096391;28;20055;-72
2021/01/28 12:12:23;;;;;;;60.55;32.25;;;7.30;54.60;;;;;;5095216;28;20024;-72
2021/01/28 12:14:49;;;;;;;69.25;36.13;;;7.30;53.60;;;;;;5096983;28;20050;-71
2021/01/28 12:17:15;;;;;;;52.60;29.48;;;7.10;53.90;;;;;;5095111;28;20389;-72
2021/01/28 12:19:41;;;;;;;86.35;45.40;;;7.10;57.90;;;;;;5096680;28;20098;-71
2021/01/28 12:22:06;;;;;;;39.83;20.67;;;7.00;56.20;;;;;;5094254;28;20093;-73
2021/01/28 12:24:33;;;;;;;32.67;17.10;;;7.00;54.80;;;;;;5095751;28;20146;-72
2021/01/28 12:26:59;;;;;;;39.28;22.17;;;6.90;55.10;;;;;;5094788;28;20414;-72
2021/01/28 12:29:25;;;;;;;25.20;15.45;;;6.80;54.50;;;;;;5094618;28;20055;-71
2021/01/28 12:31:51;;;;;;;26.88;16.35;;;6.80;54.30;;;;;;5096353;28;20457;-72
2021/01/28 12:34:18;;;;;;;26.27;16.30;;;6.80;54.30;;;;;;5096026;28;20020;-70
2021/01/28 12:36:44;;;;;;;18.48;10.60;;;6.70;53.30;;;;;;5094222;28;20389;-72
2021/01/28 12:39:09;;;;;;;30.85;16.02;;;6.80;53.40;;;;;;5094227;28;20027;-71
2021/01/28 12:41:35;;;;;;;27.35;14.80;;;6.90;52.20;;;;;;5102738;28;20536;-71
2021/01/28 12:44:01;;;;;;;18.63;11.25;;;7.10;54.00;;;;;;5105529;28;20022;-74
2021/01/28 12:46:27;;;;;;;15.13;9.43;;;7.30;55.50;;;;;;5103749;28;20032;-70
2021/01/28 12:48:53;;;;;;;17.98;10.02;;;7.70;53.80;;;;;;5104162;28;20376;-71
2021/01/28 12:51:19;;;;;;;12.80;8.55;;;7.90;54.80;;;;;;5104717;28;20027;-71
2021/01/28 12:53:45;;;;;;;37.40;19.08;;;8.80;51.80;;;;;;5103188;28;20427;-71
2021/01/28 12:56:10;;;;;;;15.45;8.73;;;9.20;49.30;;;;;;5105831;28;20020;-72